Airfield :







YOU CAN JOIN US ON...

 
LOGIN :

Register | Disclaimer

   EN    FR    IT 

 









Legend :    VFR   Marginal VFR   IFR   Intensive IFR   Very Intensive IFR
Visi :
Ceiling :
>= 8 km
>= 3000ft
5 to 8 km
1000 to 3000 ft
1500m to 5 km
500 to 1000 ft
800 to 1500m
200 to 500 ft
< 800m
< 200 ft
Symbols :   Thunderstorms  Fog  Heavy snow  Heavy precipitations  Wind > 20 kt






- Airport Elevation : 160 ft
- IATA code : YYR


CYYR - Goose Bay

CURRENT METAR :
  • 211200Z 33009KT 15SM BKN040 BKN055 02/M01 A3011 RMK SC5SC2 SLP201

EXPIRED METARs :
  • 211100Z 34011KT 15SM FEW015 FEW040 SCT055 SCT100 BKN250 02/M01 A3010 RMK SC1SC2SC2AC1CI1 SLP197
  • 211000Z 32008KT 15SM BKN040 03/M01 A3010 RMK SC7 SLP195

TAF TAF CYYR
Valid from the 21 at 12:00 until the 22 at 12:00 UTC


211130Z 2112/2212 34010KT P6SM FEW020 BKN040
FM220300 29005KT P6SM SCT030
FM220900 27005KT P6SM BKN020 RMK NXT FCST BY 211800Z



MET'MAP, your aeronautical weather chart ! - Copyright ORBIFLY December 2007 - Disclaimer

ORBIFLY MET'MAP TEAM :

Programming & Development : Alexandra Zaïnal
Concept & Development : Baudouin d'Aumeries
Co-Development & Prog : Marc-Olivier Méhu
Technical & hardware support : Manuel Goepfert

Contact : metmap@orbifly.com




SOURCES & CREDITS :

   NOAA